createdAt,value
2018-11-14T00:04:33.543Z,9.20
2018-11-14T00:09:37.781Z,8.70
2018-11-14T00:14:41.426Z,7.23
2018-11-14T00:19:45.321Z,9.63
2018-11-14T00:24:49.639Z,8.90
2018-11-14T00:29:54.149Z,7.77
2018-11-14T00:34:58.677Z,9.40
2018-11-14T00:40:02.324Z,10.73
2018-11-14T00:45:07.860Z,8.33
2018-11-14T00:50:13.037Z,7.93
2018-11-14T00:55:18.546Z,10.00
2018-11-14T01:00:23.789Z,6.43
2018-11-14T01:05:27.866Z,8.23
2018-11-14T01:10:31.983Z,8.10
2018-11-14T01:15:36.078Z,6.90
2018-11-14T01:20:39.982Z,9.27
2018-11-14T01:25:43.998Z,7.37
2018-11-14T01:30:48.133Z,7.30
2018-11-14T01:35:52.169Z,8.33
2018-11-14T01:40:56.137Z,7.23
2018-11-14T01:46:00.015Z,9.37
2018-11-14T01:51:03.637Z,7.93
2018-11-14T01:56:07.495Z,8.17
2018-11-14T02:01:11.634Z,6.83
2018-11-14T02:06:16.071Z,7.60
2018-11-14T02:11:19.699Z,7.80
2018-11-14T02:16:23.689Z,7.63
2018-11-14T02:21:27.311Z,7.07
2018-11-14T02:26:31.051Z,3.73
2018-11-14T02:31:34.794Z,6.77
2018-11-14T02:36:38.470Z,5.67
2018-11-14T02:41:42.171Z,7.13
2018-11-14T02:46:46.536Z,7.07
2018-11-14T02:51:50.403Z,7.93
2018-11-14T02:56:54.076Z,7.27
2018-11-14T03:01:57.854Z,8.00
2018-11-14T03:07:01.560Z,5.83
2018-11-14T03:12:05.617Z,9.30
2018-11-14T03:17:09.498Z,7.83
2018-11-14T03:22:13.321Z,6.37
2018-11-14T03:27:17.627Z,7.70
2018-11-14T03:32:21.241Z,7.03
2018-11-14T03:37:25.005Z,7.57
2018-11-14T03:42:28.992Z,6.60
2018-11-14T03:47:32.515Z,8.67
2018-11-14T03:52:36.188Z,8.57
2018-11-14T03:57:39.804Z,8.20
2018-11-14T04:02:45.047Z,7.53
2018-11-14T04:07:48.727Z,7.40
2018-11-14T04:12:52.784Z,10.20
2018-11-14T04:17:56.685Z,6.50
2018-11-14T04:23:00.577Z,7.60
2018-11-14T04:28:04.436Z,7.43
2018-11-14T04:33:08.230Z,11.50
2018-11-14T04:38:12.022Z,7.33
2018-11-14T04:43:15.779Z,9.57
2018-11-14T04:48:19.523Z,9.93
2018-11-14T04:53:23.350Z,10.03
2018-11-14T04:58:26.982Z,12.87
2018-11-14T05:03:30.803Z,9.30
2018-11-14T05:08:34.934Z,7.73
2018-11-14T05:13:38.565Z,7.10
2018-11-14T05:18:42.274Z,9.37
2018-11-14T05:23:45.974Z,6.97
2018-11-14T05:28:49.791Z,6.87
2018-11-14T05:33:53.667Z,7.87
2018-11-14T05:38:57.622Z,10.03
2018-11-14T05:44:01.593Z,11.40
2018-11-14T05:49:05.437Z,7.63
2018-11-14T05:54:10.075Z,9.07
2018-11-14T05:59:14.086Z,8.97
2018-11-14T06:09:53.661Z,9.53
2018-11-14T06:14:57.714Z,8.60
2018-11-14T06:20:01.740Z,11.67
2018-11-14T06:25:17.216Z,12.00
2018-11-14T06:30:21.652Z,10.03
2018-11-14T06:35:25.385Z,10.83
2018-11-14T06:40:29.612Z,11.13
2018-11-14T06:45:33.831Z,9.40
2018-11-14T06:50:37.919Z,8.00
2018-11-14T06:55:42.080Z,9.20
2018-11-14T07:00:55.847Z,8.63
2018-11-14T07:05:59.921Z,7.90
2018-11-14T07:11:13.868Z,7.67
2018-11-14T07:16:17.880Z,7.03
2018-11-14T07:21:21.695Z,8.93
2018-11-14T07:26:25.790Z,6.57
2018-11-14T07:31:29.399Z,7.90
2018-11-14T07:36:33.233Z,7.67
2018-11-14T07:41:38.511Z,9.60
2018-11-14T07:46:42.278Z,7.77
2018-11-14T07:51:46.190Z,8.40
2018-11-14T07:56:50.195Z,7.60
2018-11-14T08:01:53.943Z,7.87
2018-11-14T08:06:58.344Z,7.43
2018-11-14T08:12:02.378Z,6.10
2018-11-14T08:17:06.564Z,8.90
2018-11-14T08:22:11.146Z,7.20
2018-11-14T08:27:15.161Z,9.33
2018-11-14T08:32:19.239Z,8.40
2018-11-14T08:37:23.233Z,9.37
2018-11-14T08:42:27.542Z,11.80
2018-11-14T08:47:31.336Z,8.83
2018-11-14T08:52:34.983Z,8.57
2018-11-14T08:57:39.707Z,8.63
2018-11-14T09:02:44.043Z,9.33
2018-11-14T09:07:48.395Z,9.57
2018-11-14T09:12:52.688Z,10.23
2018-11-14T09:17:56.814Z,10.13
2018-11-14T09:23:00.686Z,9.37
2018-11-14T09:28:04.491Z,6.87
2018-11-14T09:33:08.321Z,8.17
2018-11-14T09:38:12.039Z,7.40
2018-11-14T09:43:16.386Z,8.40
2018-11-14T09:48:20.144Z,8.00
2018-11-14T09:53:23.952Z,9.20
2018-11-14T09:58:28.291Z,8.47
2018-11-14T10:03:32.440Z,9.03
2018-11-14T10:08:36.622Z,7.53
2018-11-14T10:13:40.741Z,8.13
2018-11-14T10:18:44.914Z,10.43
2018-11-14T10:23:48.508Z,9.47
2018-11-14T10:28:52.328Z,6.10
2018-11-14T10:33:56.365Z,5.70
2018-11-14T10:39:00.396Z,8.10
2018-11-14T10:44:04.436Z,4.77
2018-11-14T10:49:08.559Z,6.23
2018-11-14T10:54:12.218Z,6.43
2018-11-14T10:59:16.271Z,8.97
2018-11-14T11:04:25.292Z,8.30
2018-11-14T11:09:34.235Z,5.33
2018-11-14T11:14:43.499Z,6.70
2018-11-14T11:19:47.149Z,6.60
2018-11-14T11:24:51.470Z,7.10
2018-11-14T11:29:55.612Z,6.13
2018-11-14T11:35:00.118Z,3.80
2018-11-14T11:40:04.322Z,5.27
2018-11-14T11:45:08.545Z,6.07
2018-11-14T11:50:12.909Z,5.57
2018-11-14T11:55:16.945Z,5.37
2018-11-14T12:00:20.729Z,6.77
2018-11-14T12:05:24.475Z,5.20
2018-11-14T12:10:28.474Z,8.40
2018-11-14T12:15:32.289Z,4.30
2018-11-14T12:20:36.365Z,7.10
2018-11-14T12:25:40.477Z,3.97
2018-11-14T12:30:45.148Z,4.33
2018-11-14T12:35:48.878Z,5.97
2018-11-14T12:40:52.830Z,5.00
2018-11-14T12:45:56.456Z,4.53
2018-11-14T12:51:00.430Z,4.67
2018-11-14T12:56:04.171Z,4.20
2018-11-14T13:01:08.070Z,3.93
2018-11-14T13:06:12.146Z,4.03
2018-11-14T13:11:15.873Z,1.90
2018-11-14T13:16:19.957Z,4.30
2018-11-14T13:21:23.815Z,4.80
2018-11-14T13:26:27.815Z,5.03
2018-11-14T13:31:32.211Z,2.00
2018-11-14T13:36:36.786Z,3.77
2018-11-14T13:41:41.217Z,3.97
2018-11-14T13:46:45.130Z,3.60
2018-11-14T13:51:49.082Z,3.00
2018-11-14T13:56:52.962Z,2.77
2018-11-14T14:01:56.892Z,3.50
2018-11-14T14:07:00.714Z,3.17
2018-11-14T14:12:04.986Z,3.17
2018-11-14T14:17:08.872Z,5.03
2018-11-14T14:22:12.831Z,3.63
2018-11-14T14:27:16.347Z,3.70
2018-11-14T14:32:20.125Z,3.33
2018-11-14T14:37:23.698Z,3.03
2018-11-14T14:42:27.743Z,3.10
2018-11-14T14:47:31.678Z,4.20
2018-11-14T14:52:35.845Z,3.27
2018-11-14T14:57:40.241Z,5.67
2018-11-14T15:02:44.115Z,4.87
2018-11-14T15:07:48.172Z,5.20
2018-11-14T15:12:52.008Z,5.70
2018-11-14T15:17:56.231Z,4.13
2018-11-14T15:23:00.221Z,4.00
2018-11-14T15:28:03.909Z,3.23
2018-11-14T15:33:07.528Z,5.53
2018-11-14T15:38:11.318Z,4.33
2018-11-14T15:43:15.049Z,4.37
2018-11-14T15:48:18.811Z,4.23
2018-11-14T15:53:22.704Z,5.23
2018-11-14T15:58:26.731Z,3.57
2018-11-14T16:03:30.451Z,4.83
2018-11-14T16:08:34.254Z,4.03
2018-11-14T16:13:38.094Z,3.33
2018-11-14T16:18:41.884Z,4.37
2018-11-14T16:23:46.151Z,4.40
2018-11-14T16:28:49.793Z,3.20
2018-11-14T16:33:53.479Z,4.53
2018-11-14T16:38:57.009Z,5.07
2018-11-14T16:44:00.805Z,4.13
2018-11-14T16:49:04.566Z,2.07
2018-11-14T16:54:08.298Z,3.17
2018-11-14T16:59:12.186Z,5.10
2018-11-14T17:04:16.338Z,4.67
2018-11-14T17:09:20.171Z,2.50
2018-11-14T17:14:27.887Z,3.03
2018-11-14T17:19:31.795Z,2.63
2018-11-14T17:24:35.530Z,3.80
2018-11-14T17:29:39.254Z,3.80
2018-11-14T17:34:42.992Z,5.27
2018-11-14T17:39:46.873Z,4.57
2018-11-14T17:44:51.808Z,4.53
2018-11-14T17:49:55.522Z,4.03
2018-11-14T17:54:59.968Z,5.50
2018-11-14T18:00:04.831Z,4.43
2018-11-14T18:05:10.423Z,7.33
2018-11-14T18:10:15.169Z,3.90
2018-11-14T18:15:19.056Z,9.17
2018-11-14T18:20:24.711Z,6.33
2018-11-14T18:25:28.843Z,5.17
2018-11-14T18:30:33.303Z,7.03
2018-11-14T18:35:37.521Z,6.17
2018-11-14T18:40:41.493Z,5.93
2018-11-14T18:45:45.837Z,5.47
2018-11-14T18:50:49.634Z,7.53
2018-11-14T18:55:53.441Z,9.47
2018-11-14T19:00:58.239Z,7.63
2018-11-14T19:06:02.360Z,9.83
2018-11-14T19:11:06.781Z,5.90
2018-11-14T19:16:10.873Z,5.50
2018-11-14T19:21:15.171Z,6.83
2018-11-14T19:26:18.848Z,6.47
2018-11-14T19:31:23.161Z,10.57
2018-11-14T19:36:27.066Z,7.97
2018-11-14T19:41:30.770Z,7.03
2018-11-14T19:46:34.651Z,7.83
2018-11-14T19:51:38.625Z,7.70
2018-11-14T19:56:42.773Z,9.37
2018-11-14T20:01:47.314Z,10.40
2018-11-14T20:06:56.510Z,10.10
2018-11-14T20:12:00.092Z,8.10
2018-11-14T20:17:03.778Z,8.17
2018-11-14T20:22:08.006Z,12.23
2018-11-14T20:27:11.973Z,10.57
2018-11-14T20:32:16.073Z,11.77
2018-11-14T20:37:19.813Z,10.07
2018-11-14T20:42:23.986Z,12.03
2018-11-14T20:47:28.178Z,12.50
2018-11-14T20:52:32.303Z,14.50
2018-11-14T20:57:37.326Z,13.87
2018-11-14T21:02:41.862Z,12.17
2018-11-14T21:07:46.949Z,13.20
2018-11-14T21:12:51.616Z,10.67
2018-11-14T21:17:56.330Z,11.73
2018-11-14T21:23:00.644Z,8.47
2018-11-14T21:28:04.964Z,8.63
2018-11-14T21:33:09.234Z,12.67
2018-11-14T21:38:13.054Z,12.10
2018-11-14T21:43:17.297Z,9.27
2018-11-14T21:48:21.222Z,8.90
2018-11-14T21:53:29.765Z,7.23
2018-11-14T21:58:33.714Z,7.60
2018-11-14T22:04:01.610Z,9.87
2018-11-14T22:09:08.425Z,8.03
2018-11-14T22:14:12.654Z,10.37
2018-11-14T22:19:16.766Z,7.83
2018-11-14T22:24:25.613Z,12.57
2018-11-14T22:35:11.619Z,8.77
2018-11-14T22:40:17.145Z,9.70
2018-11-14T22:45:23.198Z,7.87
2018-11-14T22:50:27.380Z,8.20
2018-11-14T22:55:31.233Z,7.47
2018-11-14T23:00:40.781Z,8.40
2018-11-14T23:05:44.763Z,9.87
2018-11-14T23:10:48.663Z,9.50
2018-11-14T23:15:52.766Z,12.30
2018-11-14T23:20:56.809Z,7.00
2018-11-14T23:26:00.549Z,5.77
2018-11-14T23:31:04.375Z,6.20
2018-11-14T23:36:08.201Z,8.07
2018-11-14T23:41:12.255Z,12.00
2018-11-14T23:46:16.390Z,7.17
2018-11-14T23:51:20.695Z,8.50
2018-11-14T23:56:24.510Z,6.83
